sensor_id;sensor_type;location;lat;lon;timestamp;temperature;humidity
10316;DHT22;5203;48.976;8.306;2023-02-28T00:00:31;0.90;61.10
10316;DHT22;5203;48.976;8.306;2023-02-28T00:02:57;0.80;61.40
10316;DHT22;5203;48.976;8.306;2023-02-28T00:05:24;0.90;61.60
10316;DHT22;5203;48.976;8.306;2023-02-28T00:07:51;0.90;61.90
10316;DHT22;5203;48.976;8.306;2023-02-28T00:10:19;0.90;61.70
10316;DHT22;5203;48.976;8.306;2023-02-28T00:12:47;0.80;61.30
10316;DHT22;5203;48.976;8.306;2023-02-28T00:15:13;0.80;61.40
10316;DHT22;5203;48.976;8.306;2023-02-28T00:17:39;0.90;61.00
10316;DHT22;5203;48.976;8.306;2023-02-28T00:20:06;0.90;61.60
10316;DHT22;5203;48.976;8.306;2023-02-28T00:22:41;0.90;61.40
10316;DHT22;5203;48.976;8.306;2023-02-28T00:25:09;0.90;61.50
10316;DHT22;5203;48.976;8.306;2023-02-28T00:27:36;0.90;61.60
10316;DHT22;5203;48.976;8.306;2023-02-28T00:30:02;0.90;61.90
10316;DHT22;5203;48.976;8.306;2023-02-28T00:32:29;0.90;61.80
10316;DHT22;5203;48.976;8.306;2023-02-28T00:34:55;0.80;61.60
10316;DHT22;5203;48.976;8.306;2023-02-28T00:37:21;0.80;61.70
10316;DHT22;5203;48.976;8.306;2023-02-28T00:39:46;0.70;62.70
10316;DHT22;5203;48.976;8.306;2023-02-28T00:42:12;0.60;62.70
10316;DHT22;5203;48.976;8.306;2023-02-28T00:44:37;0.60;63.10
10316;DHT22;5203;48.976;8.306;2023-02-28T00:47:03;0.60;63.10
10316;DHT22;5203;48.976;8.306;2023-02-28T00:49:29;0.60;62.90
10316;DHT22;5203;48.976;8.306;2023-02-28T00:51:55;0.50;63.00
10316;DHT22;5203;48.976;8.306;2023-02-28T00:54:21;0.60;63.30
10316;DHT22;5203;48.976;8.306;2023-02-28T00:56:47;0.60;63.20
10316;DHT22;5203;48.976;8.306;2023-02-28T00:59:15;0.60;63.30
10316;DHT22;5203;48.976;8.306;2023-02-28T01:01:42;0.50;63.50
10316;DHT22;5203;48.976;8.306;2023-02-28T01:04:08;0.40;63.70
10316;DHT22;5203;48.976;8.306;2023-02-28T01:06:33;0.50;63.80
10316;DHT22;5203;48.976;8.306;2023-02-28T01:09:00;0.50;63.70
10316;DHT22;5203;48.976;8.306;2023-02-28T01:11:25;0.50;63.70
10316;DHT22;5203;48.976;8.306;2023-02-28T01:13:51;0.50;63.70
10316;DHT22;5203;48.976;8.306;2023-02-28T01:16:17;0.50;63.80
10316;DHT22;5203;48.976;8.306;2023-02-28T01:18:43;0.50;63.50
10316;DHT22;5203;48.976;8.306;2023-02-28T01:21:12;0.50;63.60
10316;DHT22;5203;48.976;8.306;2023-02-28T01:23:39;0.40;63.70
10316;DHT22;5203;48.976;8.306;2023-02-28T01:26:10;0.40;64.20
10316;DHT22;5203;48.976;8.306;2023-02-28T01:28:36;0.40;64.80
10316;DHT22;5203;48.976;8.306;2023-02-28T01:31:02;0.30;65.00
10316;DHT22;5203;48.976;8.306;2023-02-28T01:33:28;0.40;64.60
10316;DHT22;5203;48.976;8.306;2023-02-28T01:36:05;0.20;65.20
10316;DHT22;5203;48.976;8.306;2023-02-28T01:38:32;0.30;65.20
10316;DHT22;5203;48.976;8.306;2023-02-28T01:40:58;0.30;65.70
10316;DHT22;5203;48.976;8.306;2023-02-28T01:46:12;0.30;65.30
10316;DHT22;5203;48.976;8.306;2023-02-28T01:48:45;0.30;65.20
10316;DHT22;5203;48.976;8.306;2023-02-28T01:51:16;0.30;64.70
10316;DHT22;5203;48.976;8.306;2023-02-28T01:53:56;0.30;65.00
10316;DHT22;5203;48.976;8.306;2023-02-28T01:56:30;0.30;65.00
10316;DHT22;5203;48.976;8.306;2023-02-28T01:58:57;0.20;65.60
10316;DHT22;5203;48.976;8.306;2023-02-28T02:01:24;0.10;66.00
10316;DHT22;5203;48.976;8.306;2023-02-28T02:03:53;0.00;66.50
10316;DHT22;5203;48.976;8.306;2023-02-28T02:06:40;0.10;66.50
10316;DHT22;5203;48.976;8.306;2023-02-28T02:09:07;0.20;66.50
10316;DHT22;5203;48.976;8.306;2023-02-28T02:11:34;0.10;66.80
10316;DHT22;5203;48.976;8.306;2023-02-28T02:19:53;0.00;67.10
10316;DHT22;5203;48.976;8.306;2023-02-28T02:38:47;0.10;67.60
10316;DHT22;5203;48.976;8.306;2023-02-28T02:41:28;0.10;67.10
10316;DHT22;5203;48.976;8.306;2023-02-28T02:44:04;0.10;67.50
10316;DHT22;5203;48.976;8.306;2023-02-28T02:46:37;0.00;67.30
10316;DHT22;5203;48.976;8.306;2023-02-28T02:49:08;0.00;67.20
10316;DHT22;5203;48.976;8.306;2023-02-28T02:51:36;0.00;67.60
10316;DHT22;5203;48.976;8.306;2023-02-28T02:54:17;0.00;67.80
10316;DHT22;5203;48.976;8.306;2023-02-28T02:56:46;-0.10;68.20
10316;DHT22;5203;48.976;8.306;2023-02-28T02:59:15;0.00;68.40
10316;DHT22;5203;48.976;8.306;2023-02-28T03:01:48;0.00;68.10
10316;DHT22;5203;48.976;8.306;2023-02-28T03:04:20;-0.10;68.50
10316;DHT22;5203;48.976;8.306;2023-02-28T03:06:46;-0.10;68.30
10316;DHT22;5203;48.976;8.306;2023-02-28T03:09:11;-0.10;68.70
10316;DHT22;5203;48.976;8.306;2023-02-28T03:11:38;-0.10;68.70
10316;DHT22;5203;48.976;8.306;2023-02-28T03:19:52;0.00;68.70
10316;DHT22;5203;48.976;8.306;2023-02-28T03:22:33;0.00;69.00
10316;DHT22;5203;48.976;8.306;2023-02-28T03:25:07;0.10;68.30
10316;DHT22;5203;48.976;8.306;2023-02-28T03:36:18;-0.10;69.00
10316;DHT22;5203;48.976;8.306;2023-02-28T03:38:58;0.00;69.10
10316;DHT22;5203;48.976;8.306;2023-02-28T03:41:40;0.00;68.80
10316;DHT22;5203;48.976;8.306;2023-02-28T03:44:15;0.10;68.70
10316;DHT22;5203;48.976;8.306;2023-02-28T03:47:04;0.10;68.90
10316;DHT22;5203;48.976;8.306;2023-02-28T03:49:40;0.10;68.90
10316;DHT22;5203;48.976;8.306;2023-02-28T03:52:09;0.00;68.90
10316;DHT22;5203;48.976;8.306;2023-02-28T03:54:41;0.00;69.30
10316;DHT22;5203;48.976;8.306;2023-02-28T03:57:23;0.10;69.20
10316;DHT22;5203;48.976;8.306;2023-02-28T03:59:58;0.10;68.90
10316;DHT22;5203;48.976;8.306;2023-02-28T04:02:24;0.20;68.90
10316;DHT22;5203;48.976;8.306;2023-02-28T04:04:50;0.20;68.10
10316;DHT22;5203;48.976;8.306;2023-02-28T04:07:17;0.00;68.90
10316;DHT22;5203;48.976;8.306;2023-02-28T04:09:42;0.10;69.00
10316;DHT22;5203;48.976;8.306;2023-02-28T04:12:09;0.10;69.00
10316;DHT22;5203;48.976;8.306;2023-02-28T04:14:34;0.00;69.00
10316;DHT22;5203;48.976;8.306;2023-02-28T04:17:00;0.00;69.30
10316;DHT22;5203;48.976;8.306;2023-02-28T04:19:25;-0.10;70.00
10316;DHT22;5203;48.976;8.306;2023-02-28T04:21:52;-0.10;70.00
10316;DHT22;5203;48.976;8.306;2023-02-28T04:24:24;-0.10;69.90
10316;DHT22;5203;48.976;8.306;2023-02-28T04:26:52;-0.10;70.10
10316;DHT22;5203;48.976;8.306;2023-02-28T04:29:24;-0.10;70.00
10316;DHT22;5203;48.976;8.306;2023-02-28T04:31:50;-0.10;69.80
10316;DHT22;5203;48.976;8.306;2023-02-28T04:34:16;-0.10;69.90
10316;DHT22;5203;48.976;8.306;2023-02-28T04:36:42;-0.10;70.20
10316;DHT22;5203;48.976;8.306;2023-02-28T04:39:07;-0.20;69.90
10316;DHT22;5203;48.976;8.306;2023-02-28T04:41:35;-0.10;70.00
10316;DHT22;5203;48.976;8.306;2023-02-28T04:44:00;-0.10;70.00
10316;DHT22;5203;48.976;8.306;2023-02-28T04:46:26;-0.10;70.10
10316;DHT22;5203;48.976;8.306;2023-02-28T04:48:51;0.00;69.60
10316;DHT22;5203;48.976;8.306;2023-02-28T04:51:18;0.00;69.40
10316;DHT22;5203;48.976;8.306;2023-02-28T04:53:45;0.00;69.40
10316;DHT22;5203;48.976;8.306;2023-02-28T04:56:13;0.00;69.30
10316;DHT22;5203;48.976;8.306;2023-02-28T04:58:39;0.00;69.80
10316;DHT22;5203;48.976;8.306;2023-02-28T05:01:07;0.00;69.20
10316;DHT22;5203;48.976;8.306;2023-02-28T05:03:40;0.00;69.50
10316;DHT22;5203;48.976;8.306;2023-02-28T05:06:09;0.00;69.10
10316;DHT22;5203;48.976;8.306;2023-02-28T05:08:35;0.00;69.40
10316;DHT22;5203;48.976;8.306;2023-02-28T05:11:02;0.00;69.40
10316;DHT22;5203;48.976;8.306;2023-02-28T05:13:28;0.00;69.20
10316;DHT22;5203;48.976;8.306;2023-02-28T05:15:54;0.00;69.10
10316;DHT22;5203;48.976;8.306;2023-02-28T05:18:20;0.00;69.50
10316;DHT22;5203;48.976;8.306;2023-02-28T05:20:45;-0.10;69.60
10316;DHT22;5203;48.976;8.306;2023-02-28T05:23:12;-0.10;69.50
10316;DHT22;5203;48.976;8.306;2023-02-28T05:25:39;-0.10;69.60
10316;DHT22;5203;48.976;8.306;2023-02-28T05:28:05;0.00;69.40
10316;DHT22;5203;48.976;8.306;2023-02-28T05:30:31;0.00;69.30
10316;DHT22;5203;48.976;8.306;2023-02-28T05:32:57;-0.10;69.50
10316;DHT22;5203;48.976;8.306;2023-02-28T05:35:23;-0.10;69.90
10316;DHT22;5203;48.976;8.306;2023-02-28T05:37:49;-0.10;69.90
10316;DHT22;5203;48.976;8.306;2023-02-28T05:40:16;-0.10;69.80
10316;DHT22;5203;48.976;8.306;2023-02-28T05:42:42;-0.10;70.00
10316;DHT22;5203;48.976;8.306;2023-02-28T05:45:08;-0.10;70.10
10316;DHT22;5203;48.976;8.306;2023-02-28T05:47:34;-0.10;70.10
10316;DHT22;5203;48.976;8.306;2023-02-28T05:50:00;-0.10;70.20
10316;DHT22;5203;48.976;8.306;2023-02-28T05:52:27;-0.10;70.10
10316;DHT22;5203;48.976;8.306;2023-02-28T05:54:52;-0.20;70.40
10316;DHT22;5203;48.976;8.306;2023-02-28T05:57:18;-0.20;70.30
10316;DHT22;5203;48.976;8.306;2023-02-28T05:59:44;-0.20;70.60
10316;DHT22;5203;48.976;8.306;2023-02-28T06:02:14;-0.20;70.70
10316;DHT22;5203;48.976;8.306;2023-02-28T06:04:40;-0.20;70.90
10316;DHT22;5203;48.976;8.306;2023-02-28T06:07:07;-0.30;71.10
10316;DHT22;5203;48.976;8.306;2023-02-28T06:09:32;-0.20;71.10
10316;DHT22;5203;48.976;8.306;2023-02-28T06:12:00;-0.20;70.50
10316;DHT22;5203;48.976;8.306;2023-02-28T06:14:28;-0.20;70.80
10316;DHT22;5203;48.976;8.306;2023-02-28T06:16:54;-0.20;70.70
10316;DHT22;5203;48.976;8.306;2023-02-28T06:19:19;-0.20;70.60
10316;DHT22;5203;48.976;8.306;2023-02-28T06:21:49;-0.10;70.70
10316;DHT22;5203;48.976;8.306;2023-02-28T06:24:16;-0.10;70.50
10316;DHT22;5203;48.976;8.306;2023-02-28T06:26:41;-0.10;70.70
10316;DHT22;5203;48.976;8.306;2023-02-28T06:29:07;0.00;70.50
10316;DHT22;5203;48.976;8.306;2023-02-28T06:31:32;0.00;70.50
10316;DHT22;5203;48.976;8.306;2023-02-28T06:33:58;0.00;70.40
10316;DHT22;5203;48.976;8.306;2023-02-28T06:36:24;0.10;69.70
10316;DHT22;5203;48.976;8.306;2023-02-28T06:38:49;0.10;70.10
10316;DHT22;5203;48.976;8.306;2023-02-28T06:41:29;0.10;70.00
10316;DHT22;5203;48.976;8.306;2023-02-28T06:43:55;0.10;69.70
10316;DHT22;5203;48.976;8.306;2023-02-28T06:46:21;0.10;69.90
10316;DHT22;5203;48.976;8.306;2023-02-28T06:48:46;0.20;69.40
10316;DHT22;5203;48.976;8.306;2023-02-28T06:51:17;0.10;69.50
10316;DHT22;5203;48.976;8.306;2023-02-28T06:53:43;0.10;69.50
10316;DHT22;5203;48.976;8.306;2023-02-28T06:56:11;0.20;69.40
10316;DHT22;5203;48.976;8.306;2023-02-28T06:58:38;0.20;69.90
10316;DHT22;5203;48.976;8.306;2023-02-28T07:01:05;0.30;69.30
10316;DHT22;5203;48.976;8.306;2023-02-28T07:03:31;0.30;69.00
10316;DHT22;5203;48.976;8.306;2023-02-28T07:05:56;0.30;68.80
10316;DHT22;5203;48.976;8.306;2023-02-28T07:08:26;0.30;68.60
10316;DHT22;5203;48.976;8.306;2023-02-28T07:10:55;0.40;68.60
10316;DHT22;5203;48.976;8.306;2023-02-28T07:13:21;0.50;68.50
10316;DHT22;5203;48.976;8.306;2023-02-28T07:16:04;0.50;67.90
10316;DHT22;5203;48.976;8.306;2023-02-28T07:18:31;0.50;68.00
10316;DHT22;5203;48.976;8.306;2023-02-28T07:20:57;0.50;68.70
10316;DHT22;5203;48.976;8.306;2023-02-28T07:23:23;0.40;67.80
10316;DHT22;5203;48.976;8.306;2023-02-28T07:25:50;0.50;67.90
10316;DHT22;5203;48.976;8.306;2023-02-28T07:28:16;0.50;68.40
10316;DHT22;5203;48.976;8.306;2023-02-28T07:30:41;0.50;67.60
10316;DHT22;5203;48.976;8.306;2023-02-28T07:33:07;0.50;67.40
10316;DHT22;5203;48.976;8.306;2023-02-28T07:35:33;0.50;67.10
10316;DHT22;5203;48.976;8.306;2023-02-28T07:37:59;0.50;67.10
10316;DHT22;5203;48.976;8.306;2023-02-28T07:40:26;0.60;67.20
10316;DHT22;5203;48.976;8.306;2023-02-28T07:42:52;0.60;67.10
10316;DHT22;5203;48.976;8.306;2023-02-28T07:45:17;0.70;66.50
10316;DHT22;5203;48.976;8.306;2023-02-28T07:47:44;0.80;66.10
10316;DHT22;5203;48.976;8.306;2023-02-28T07:50:12;0.80;65.90
10316;DHT22;5203;48.976;8.306;2023-02-28T07:52:39;0.90;65.10
10316;DHT22;5203;48.976;8.306;2023-02-28T07:55:06;0.90;65.70
10316;DHT22;5203;48.976;8.306;2023-02-28T07:57:32;0.80;65.40
10316;DHT22;5203;48.976;8.306;2023-02-28T07:59:58;0.80;65.50
10316;DHT22;5203;48.976;8.306;2023-02-28T08:02:24;0.90;65.50
10316;DHT22;5203;48.976;8.306;2023-02-28T08:04:50;0.80;65.50
10316;DHT22;5203;48.976;8.306;2023-02-28T08:07:16;0.80;65.30
10316;DHT22;5203;48.976;8.306;2023-02-28T08:09:43;0.70;65.70
10316;DHT22;5203;48.976;8.306;2023-02-28T08:12:09;0.80;66.00
10316;DHT22;5203;48.976;8.306;2023-02-28T08:14:35;0.80;65.60
10316;DHT22;5203;48.976;8.306;2023-02-28T08:17:01;0.70;65.90
10316;DHT22;5203;48.976;8.306;2023-02-28T08:19:27;0.70;66.40
10316;DHT22;5203;48.976;8.306;2023-02-28T08:21:54;0.80;65.70
10316;DHT22;5203;48.976;8.306;2023-02-28T08:24:19;0.90;65.20
10316;DHT22;5203;48.976;8.306;2023-02-28T08:26:45;1.00;64.70
10316;DHT22;5203;48.976;8.306;2023-02-28T08:29:11;1.00;64.20
10316;DHT22;5203;48.976;8.306;2023-02-28T08:31:36;1.10;64.90
10316;DHT22;5203;48.976;8.306;2023-02-28T08:34:11;1.10;64.10
10316;DHT22;5203;48.976;8.306;2023-02-28T08:36:37;1.20;64.00
10316;DHT22;5203;48.976;8.306;2023-02-28T08:39:03;1.30;63.30
10316;DHT22;5203;48.976;8.306;2023-02-28T08:41:29;1.30;63.10
10316;DHT22;5203;48.976;8.306;2023-02-28T08:43:55;1.30;63.10
10316;DHT22;5203;48.976;8.306;2023-02-28T08:46:20;1.30;62.70
10316;DHT22;5203;48.976;8.306;2023-02-28T08:48:46;1.20;62.80
10316;DHT22;5203;48.976;8.306;2023-02-28T08:51:14;1.30;63.10
10316;DHT22;5203;48.976;8.306;2023-02-28T08:53:41;1.40;62.60
10316;DHT22;5203;48.976;8.306;2023-02-28T08:56:12;1.50;62.60
10316;DHT22;5203;48.976;8.306;2023-02-28T08:58:39;1.50;61.90
10316;DHT22;5203;48.976;8.306;2023-02-28T09:01:16;1.60;62.00
10316;DHT22;5203;48.976;8.306;2023-02-28T09:03:42;1.70;61.70
10316;DHT22;5203;48.976;8.306;2023-02-28T09:06:10;1.70;61.70
10316;DHT22;5203;48.976;8.306;2023-02-28T09:08:36;2.00;60.00
10316;DHT22;5203;48.976;8.306;2023-02-28T09:11:02;1.90;60.50
10316;DHT22;5203;48.976;8.306;2023-02-28T09:13:29;1.80;60.60
10316;DHT22;5203;48.976;8.306;2023-02-28T09:15:58;1.80;60.50
10316;DHT22;5203;48.976;8.306;2023-02-28T09:18:25;2.00;60.40
10316;DHT22;5203;48.976;8.306;2023-02-28T09:20:51;2.00;60.10
10316;DHT22;5203;48.976;8.306;2023-02-28T09:23:17;2.10;60.10
10316;DHT22;5203;48.976;8.306;2023-02-28T09:25:51;2.20;59.20
10316;DHT22;5203;48.976;8.306;2023-02-28T09:28:17;2.10;58.80
10316;DHT22;5203;48.976;8.306;2023-02-28T09:30:48;2.10;59.70
10316;DHT22;5203;48.976;8.306;2023-02-28T09:33:16;2.20;59.00
10316;DHT22;5203;48.976;8.306;2023-02-28T09:35:42;2.30;59.30
10316;DHT22;5203;48.976;8.306;2023-02-28T09:38:08;2.60;57.30
10316;DHT22;5203;48.976;8.306;2023-02-28T09:40:37;2.60;57.20
10316;DHT22;5203;48.976;8.306;2023-02-28T09:43:04;2.60;56.60
10316;DHT22;5203;48.976;8.306;2023-02-28T09:45:37;2.60;56.60
10316;DHT22;5203;48.976;8.306;2023-02-28T09:48:27;2.50;56.80
10316;DHT22;5203;48.976;8.306;2023-02-28T09:51:04;2.80;57.70
10316;DHT22;5203;48.976;8.306;2023-02-28T09:53:35;2.80;55.80
10316;DHT22;5203;48.976;8.306;2023-02-28T09:56:15;2.90;55.90
10316;DHT22;5203;48.976;8.306;2023-02-28T09:58:51;3.00;56.00
10316;DHT22;5203;48.976;8.306;2023-02-28T10:01:39;3.00;55.60
10316;DHT22;5203;48.976;8.306;2023-02-28T10:06:52;3.00;55.00
10316;DHT22;5203;48.976;8.306;2023-02-28T10:09:25;3.30;55.10
10316;DHT22;5203;48.976;8.306;2023-02-28T10:11:54;3.40;54.40
10316;DHT22;5203;48.976;8.306;2023-02-28T10:14:24;3.50;53.30
10316;DHT22;5203;48.976;8.306;2023-02-28T10:16:57;3.50;53.10
10316;DHT22;5203;48.976;8.306;2023-02-28T10:19:46;3.50;53.00
10316;DHT22;5203;48.976;8.306;2023-02-28T10:22:18;3.60;52.20
10316;DHT22;5203;48.976;8.306;2023-02-28T10:24:47;3.40;52.20
10316;DHT22;5203;48.976;8.306;2023-02-28T10:27:22;3.50;52.50
10316;DHT22;5203;48.976;8.306;2023-02-28T10:29:53;3.50;52.10
10316;DHT22;5203;48.976;8.306;2023-02-28T10:32:39;3.40;52.60
10316;DHT22;5203;48.976;8.306;2023-02-28T10:35:20;3.30;52.80
10316;DHT22;5203;48.976;8.306;2023-02-28T10:37:49;3.40;52.50
10316;DHT22;5203;48.976;8.306;2023-02-28T10:43:03;3.50;52.90
10316;DHT22;5203;48.976;8.306;2023-02-28T10:45:31;3.60;52.80
10316;DHT22;5203;48.976;8.306;2023-02-28T10:55:36;3.50;53.20
10316;DHT22;5203;48.976;8.306;2023-02-28T10:58:02;3.60;52.80
10316;DHT22;5203;48.976;8.306;2023-02-28T11:00:37;3.60;52.80
10316;DHT22;5203;48.976;8.306;2023-02-28T11:05:50;3.50;53.50
10316;DHT22;5203;48.976;8.306;2023-02-28T11:08:17;3.60;53.00
10316;DHT22;5203;48.976;8.306;2023-02-28T11:10:55;3.60;53.30
10316;DHT22;5203;48.976;8.306;2023-02-28T11:13:26;3.80;52.60
10316;DHT22;5203;48.976;8.306;2023-02-28T11:15:57;3.80;53.00
10316;DHT22;5203;48.976;8.306;2023-02-28T11:18:47;3.80;52.00
10316;DHT22;5203;48.976;8.306;2023-02-28T11:21:32;3.80;52.50
10316;DHT22;5203;48.976;8.306;2023-02-28T11:24:05;3.90;52.60
10316;DHT22;5203;48.976;8.306;2023-02-28T11:26:44;3.90;51.90
10316;DHT22;5203;48.976;8.306;2023-02-28T11:29:16;3.80;52.20
10316;DHT22;5203;48.976;8.306;2023-02-28T11:31:42;3.80;52.30
10316;DHT22;5203;48.976;8.306;2023-02-28T11:34:24;3.70;52.70
10316;DHT22;5203;48.976;8.306;2023-02-28T11:36:52;3.80;52.30
10316;DHT22;5203;48.976;8.306;2023-02-28T11:39:19;3.80;52.80
10316;DHT22;5203;48.976;8.306;2023-02-28T11:45:11;3.90;52.70
10316;DHT22;5203;48.976;8.306;2023-02-28T11:53:27;4.10;51.40
10316;DHT22;5203;48.976;8.306;2023-02-28T11:56:05;4.10;51.30
10316;DHT22;5203;48.976;8.306;2023-02-28T11:58:50;4.10;51.20
10316;DHT22;5203;48.976;8.306;2023-02-28T12:01:50;4.30;51.10
10316;DHT22;5203;48.976;8.306;2023-02-28T12:05:29;4.30;50.80
10316;DHT22;5203;48.976;8.306;2023-02-28T12:07:47;4.20;50.20
10316;DHT22;5203;48.976;8.306;2023-02-28T12:10:24;4.20;50.70
10316;DHT22;5203;48.976;8.306;2023-02-28T12:23:43;4.80;50.00
10316;DHT22;5203;48.976;8.306;2023-02-28T12:29:07;5.20;46.90
10316;DHT22;5203;48.976;8.306;2023-02-28T12:31:38;5.00;46.40
10316;DHT22;5203;48.976;8.306;2023-02-28T12:34:11;5.00;46.60
10316;DHT22;5203;48.976;8.306;2023-02-28T12:36:39;5.20;45.50
10316;DHT22;5203;48.976;8.306;2023-02-28T12:39:20;5.20;46.30
10316;DHT22;5203;48.976;8.306;2023-02-28T12:42:10;5.50;45.90
10316;DHT22;5203;48.976;8.306;2023-02-28T12:44:46;5.60;45.70
10316;DHT22;5203;48.976;8.306;2023-02-28T12:47:17;5.50;46.10
10316;DHT22;5203;48.976;8.306;2023-02-28T12:49:54;5.60;45.20
10316;DHT22;5203;48.976;8.306;2023-02-28T12:52:35;5.70;45.40
10316;DHT22;5203;48.976;8.306;2023-02-28T12:55:20;5.70;45.10
10316;DHT22;5203;48.976;8.306;2023-02-28T13:07:03;7.70;39.60
10316;DHT22;5203;48.976;8.306;2023-02-28T13:09:11;8.10;38.70
10316;DHT22;5203;48.976;8.306;2023-02-28T13:11:47;8.10;38.20
10316;DHT22;5203;48.976;8.306;2023-02-28T13:16:51;7.50;39.50
10316;DHT22;5203;48.976;8.306;2023-02-28T13:19:20;7.40;39.40
10316;DHT22;5203;48.976;8.306;2023-02-28T13:21:48;7.50;39.20
10316;DHT22;5203;48.976;8.306;2023-02-28T13:24:39;7.90;38.80
10316;DHT22;5203;48.976;8.306;2023-02-28T13:35:12;9.20;36.40
10316;DHT22;5203;48.976;8.306;2023-02-28T13:37:35;9.10;35.70
10316;DHT22;5203;48.976;8.306;2023-02-28T13:42:46;8.10;38.50
10316;DHT22;5203;48.976;8.306;2023-02-28T13:48:17;7.60;38.80
10316;DHT22;5203;48.976;8.306;2023-02-28T13:50:43;7.30;39.20
10316;DHT22;5203;48.976;8.306;2023-02-28T13:58:51;6.80;41.30
10316;DHT22;5203;48.976;8.306;2023-02-28T14:01:51;7.00;41.10
10316;DHT22;5203;48.976;8.306;2023-02-28T14:04:30;7.40;40.00
10316;DHT22;5203;48.976;8.306;2023-02-28T14:07:03;7.80;39.90
10316;DHT22;5203;48.976;8.306;2023-02-28T14:15:01;8.10;38.60
10316;DHT22;5203;48.976;8.306;2023-02-28T14:17:28;8.00;38.90
10316;DHT22;5203;48.976;8.306;2023-02-28T14:19:54;8.10;39.10
10316;DHT22;5203;48.976;8.306;2023-02-28T14:22:52;7.80;39.40
10316;DHT22;5203;48.976;8.306;2023-02-28T14:25:43;7.60;39.20
10316;DHT22;5203;48.976;8.306;2023-02-28T14:31:25;7.50;40.20
10316;DHT22;5203;48.976;8.306;2023-02-28T14:36:47;8.40;38.10
10316;DHT22;5203;48.976;8.306;2023-02-28T14:39:14;8.00;38.50
10316;DHT22;5203;48.976;8.306;2023-02-28T14:41:42;7.80;39.10
10316;DHT22;5203;48.976;8.306;2023-02-28T14:44:27;7.60;39.20
10316;DHT22;5203;48.976;8.306;2023-02-28T14:47:01;7.80;39.30
10316;DHT22;5203;48.976;8.306;2023-02-28T14:49:51;8.30;38.20
10316;DHT22;5203;48.976;8.306;2023-02-28T14:52:43;8.30;38.10
10316;DHT22;5203;48.976;8.306;2023-02-28T14:55:18;8.70;37.60
10316;DHT22;5203;48.976;8.306;2023-02-28T14:57:59;9.10;36.70
10316;DHT22;5203;48.976;8.306;2023-02-28T15:00:28;9.10;36.70
10316;DHT22;5203;48.976;8.306;2023-02-28T15:02:55;9.10;37.00
10316;DHT22;5203;48.976;8.306;2023-02-28T15:08:14;9.20;36.70
10316;DHT22;5203;48.976;8.306;2023-02-28T15:11:02;9.10;36.30
10316;DHT22;5203;48.976;8.306;2023-02-28T15:13:38;8.90;36.50
10316;DHT22;5203;48.976;8.306;2023-02-28T15:18:48;8.00;38.60
10316;DHT22;5203;48.976;8.306;2023-02-28T15:23:59;8.70;37.70
10316;DHT22;5203;48.976;8.306;2023-02-28T15:26:30;8.70;37.60
10316;DHT22;5203;48.976;8.306;2023-02-28T15:29:04;8.70;37.00
10316;DHT22;5203;48.976;8.306;2023-02-28T15:31:56;8.60;37.10
10316;DHT22;5203;48.976;8.306;2023-02-28T15:34:28;8.70;37.10
10316;DHT22;5203;48.976;8.306;2023-02-28T15:36:55;8.40;37.00
10316;DHT22;5203;48.976;8.306;2023-02-28T15:39:26;8.50;37.50
10316;DHT22;5203;48.976;8.306;2023-02-28T15:42:19;8.70;36.90
10316;DHT22;5203;48.976;8.306;2023-02-28T15:44:45;8.70;36.90
10316;DHT22;5203;48.976;8.306;2023-02-28T15:47:26;8.80;37.10
10316;DHT22;5203;48.976;8.306;2023-02-28T15:52:38;8.20;38.60
10316;DHT22;5203;48.976;8.306;2023-02-28T15:55:22;8.20;38.30
10316;DHT22;5203;48.976;8.306;2023-02-28T15:57:51;8.20;38.30
10316;DHT22;5203;48.976;8.306;2023-02-28T16:00:23;8.30;38.90
10316;DHT22;5203;48.976;8.306;2023-02-28T16:02:50;8.30;37.90
10316;DHT22;5203;48.976;8.306;2023-02-28T16:05:29;8.30;38.30
10316;DHT22;5203;48.976;8.306;2023-02-28T16:10:29;8.00;38.90
10316;DHT22;5203;48.976;8.306;2023-02-28T16:12:56;7.80;38.90
10316;DHT22;5203;48.976;8.306;2023-02-28T16:15:25;7.60;39.40
10316;DHT22;5203;48.976;8.306;2023-02-28T16:17:52;7.60;39.70
10316;DHT22;5203;48.976;8.306;2023-02-28T16:20:24;7.40;40.10
10316;DHT22;5203;48.976;8.306;2023-02-28T16:22:51;7.20;40.90
10316;DHT22;5203;48.976;8.306;2023-02-28T16:25:20;7.20;41.20
10316;DHT22;5203;48.976;8.306;2023-02-28T16:27:49;7.20;40.90
10316;DHT22;5203;48.976;8.306;2023-02-28T16:30:21;7.10;40.70
10316;DHT22;5203;48.976;8.306;2023-02-28T16:32:48;7.00;41.10
10316;DHT22;5203;48.976;8.306;2023-02-28T16:35:15;6.80;41.50
10316;DHT22;5203;48.976;8.306;2023-02-28T16:37:41;6.60;42.20
10316;DHT22;5203;48.976;8.306;2023-02-28T16:40:13;6.50;42.80
10316;DHT22;5203;48.976;8.306;2023-02-28T16:42:40;6.60;42.80
10316;DHT22;5203;48.976;8.306;2023-02-28T16:45:08;6.50;43.00
10316;DHT22;5203;48.976;8.306;2023-02-28T16:47:36;6.50;43.10
10316;DHT22;5203;48.976;8.306;2023-02-28T16:50:15;6.40;43.20
10316;DHT22;5203;48.976;8.306;2023-02-28T16:52:41;6.30;43.30
10316;DHT22;5203;48.976;8.306;2023-02-28T16:55:07;6.30;44.00
10316;DHT22;5203;48.976;8.306;2023-02-28T16:57:33;6.30;43.80
10316;DHT22;5203;48.976;8.306;2023-02-28T16:59:59;6.20;43.90
10316;DHT22;5203;48.976;8.306;2023-02-28T17:02:24;6.10;44.40
10316;DHT22;5203;48.976;8.306;2023-02-28T17:04:50;6.00;44.70
10316;DHT22;5203;48.976;8.306;2023-02-28T17:07:16;5.70;45.40
10316;DHT22;5203;48.976;8.306;2023-02-28T17:09:42;5.60;45.90
10316;DHT22;5203;48.976;8.306;2023-02-28T17:12:08;5.50;46.40
10316;DHT22;5203;48.976;8.306;2023-02-28T17:14:34;5.40;46.60
10316;DHT22;5203;48.976;8.306;2023-02-28T17:17:00;5.30;46.90
10316;DHT22;5203;48.976;8.306;2023-02-28T17:19:26;5.30;47.10
10316;DHT22;5203;48.976;8.306;2023-02-28T17:21:53;5.30;47.30
10316;DHT22;5203;48.976;8.306;2023-02-28T17:24:19;5.30;47.40
10316;DHT22;5203;48.976;8.306;2023-02-28T17:26:44;5.10;47.80
10316;DHT22;5203;48.976;8.306;2023-02-28T17:29:19;5.10;48.10
10316;DHT22;5203;48.976;8.306;2023-02-28T17:31:45;5.00;47.90
10316;DHT22;5203;48.976;8.306;2023-02-28T17:34:11;5.00;48.20
10316;DHT22;5203;48.976;8.306;2023-02-28T17:36:47;4.90;48.60
10316;DHT22;5203;48.976;8.306;2023-02-28T17:39:14;4.80;48.70
10316;DHT22;5203;48.976;8.306;2023-02-28T17:41:41;4.70;49.00
10316;DHT22;5203;48.976;8.306;2023-02-28T17:44:07;4.70;49.00
10316;DHT22;5203;48.976;8.306;2023-02-28T17:46:33;4.60;49.50
10316;DHT22;5203;48.976;8.306;2023-02-28T17:48:59;4.60;49.40
10316;DHT22;5203;48.976;8.306;2023-02-28T17:51:25;4.50;49.90
10316;DHT22;5203;48.976;8.306;2023-02-28T17:53:51;4.50;50.00
10316;DHT22;5203;48.976;8.306;2023-02-28T17:56:24;4.60;50.00
10316;DHT22;5203;48.976;8.306;2023-02-28T17:58:52;4.50;49.90
10316;DHT22;5203;48.976;8.306;2023-02-28T18:01:19;4.50;49.90
10316;DHT22;5203;48.976;8.306;2023-02-28T18:03:48;4.50;50.10
10316;DHT22;5203;48.976;8.306;2023-02-28T18:06:23;4.40;50.20
10316;DHT22;5203;48.976;8.306;2023-02-28T18:08:50;4.30;50.40
10316;DHT22;5203;48.976;8.306;2023-02-28T18:11:20;4.20;50.60
10316;DHT22;5203;48.976;8.306;2023-02-28T18:13:51;4.20;50.80
10316;DHT22;5203;48.976;8.306;2023-02-28T18:16:18;4.30;50.70
10316;DHT22;5203;48.976;8.306;2023-02-28T18:18:44;4.20;50.70
10316;DHT22;5203;48.976;8.306;2023-02-28T18:21:14;4.20;51.00
10316;DHT22;5203;48.976;8.306;2023-02-28T18:23:41;4.10;51.20
10316;DHT22;5203;48.976;8.306;2023-02-28T18:26:13;4.10;51.20
10316;DHT22;5203;48.976;8.306;2023-02-28T18:28:39;4.00;51.60
10316;DHT22;5203;48.976;8.306;2023-02-28T18:31:12;4.10;51.40